Time;durP1;ratioP1;P1;durP2;ratioP2;P2;SDS_P1;SDS_P2;PMS_P1;PMS_P2;Temp;Humidity;BMP_temperature;BMP_pressure;BME280_temperature;BME280_humidity;BME280_pressure;Samples;Min_cycle;Max_cycle;Signal;HPM_P1;HPM_P2
2023/04/29 00:01:21;;;;;;;101.30;32.53;;;9.60;99.90;;;;;;5086755;28;20472;-76
2023/04/29 00:03:50;;;;;;;293.07;59.03;;;9.60;99.90;;;;;;5079412;28;20456;-74
2023/04/29 00:06:17;;;;;;;233.57;48.63;;;9.70;99.90;;;;;;5072686;28;20799;-74
2023/04/29 00:08:44;;;;;;;351.03;63.70;;;9.70;99.90;;;;;;5055615;28;20794;-78
2023/04/29 00:11:11;;;;;;;477.10;78.83;;;9.70;99.90;;;;;;5059099;28;20445;-79
2023/04/29 00:13:39;;;;;;;238.43;49.77;;;9.80;99.90;;;;;;5065862;28;20462;-75
2023/04/29 00:16:09;;;;;;;300.10;58.13;;;9.70;99.90;;;;;;5065336;28;20437;-75
2023/04/29 00:18:36;;;;;;;300.70;55.93;;;9.70;99.90;;;;;;5066792;28;20513;-76
2023/04/29 00:21:05;;;;;;;141.90;38.60;;;9.70;99.90;;;;;;5065134;28;20448;-74
2023/04/29 00:23:33;;;;;;;286.67;50.17;;;9.60;99.90;;;;;;5063637;28;20444;-77
2023/04/29 00:26:00;;;;;;;304.87;60.77;;;9.60;99.90;;;;;;5055745;28;20448;-76
2023/04/29 00:28:27;;;;;;;341.53;61.50;;;9.60;99.90;;;;;;5060149;28;20440;-75
2023/04/29 00:30:54;;;;;;;104.50;33.87;;;9.70;99.90;;;;;;5056996;28;20486;-78
2023/04/29 00:33:21;;;;;;;335.80;59.97;;;9.70;99.90;;;;;;5060722;28;21000;-79
2023/04/29 00:35:48;;;;;;;163.97;43.67;;;9.70;99.90;;;;;;5063054;28;20456;-75
2023/04/29 00:38:17;;;;;;;262.23;56.37;;;9.70;99.90;;;;;;5063953;28;20493;-79
2023/04/29 00:40:44;;;;;;;64.30;26.63;;;9.70;99.90;;;;;;5056683;28;20502;-76
2023/04/29 00:43:11;;;;;;;89.23;33.37;;;9.80;99.90;;;;;;5065918;28;20487;-76
2023/04/29 00:45:39;;;;;;;60.07;28.77;;;9.80;99.90;;;;;;5067869;28;20448;-76
2023/04/29 00:48:06;;;;;;;77.27;31.30;;;9.80;99.90;;;;;;5066154;28;20495;-75
2023/04/29 00:50:33;;;;;;;61.87;29.00;;;9.80;99.90;;;;;;5062734;28;20525;-75
2023/04/29 00:53:01;;;;;;;95.90;35.80;;;9.80;99.90;;;;;;5067472;28;21037;-74
2023/04/29 00:55:30;;;;;;;45.57;27.40;;;9.70;99.90;;;;;;5065379;28;20490;-75
2023/04/29 00:57:57;;;;;;;32.00;22.87;;;9.70;99.90;;;;;;5062162;28;20446;-78
2023/04/29 01:00:25;;;;;;;26.93;21.43;;;9.70;99.90;;;;;;5052452;28;20454;-79
2023/04/29 01:02:54;;;;;;;27.03;21.33;;;9.70;99.90;;;;;;5061040;28;20478;-76
2023/04/29 01:05:21;;;;;;;25.60;19.93;;;9.70;99.90;;;;;;5052927;28;20464;-75
2023/04/29 01:08:04;;;;;;;29.73;20.90;;;9.70;99.90;;;;;;5065010;28;20983;-74
2023/04/29 01:10:39;;;;;;;26.60;20.03;;;9.70;99.90;;;;;;5056103;28;20496;-75
2023/04/29 01:13:11;;;;;;;27.20;21.70;;;9.80;99.90;;;;;;5063433;28;20556;-75
2023/04/29 01:15:47;;;;;;;27.93;20.47;;;9.80;99.90;;;;;;5051104;28;20448;-81
2023/04/29 01:18:22;;;;;;;20.90;16.77;;;9.70;99.90;;;;;;5054830;28;20517;-75
2023/04/29 01:20:49;;;;;;;25.67;18.93;;;9.70;99.90;;;;;;5060094;28;20445;-73
2023/04/29 01:23:16;;;;;;;24.33;19.33;;;9.80;99.90;;;;;;5057206;28;20941;-79
2023/04/29 01:25:45;;;;;;;26.20;18.63;;;9.80;99.90;;;;;;5064281;28;20452;-74
2023/04/29 01:28:20;;;;;;;22.53;18.80;;;9.90;99.90;;;;;;5059384;28;20440;-75
2023/04/29 01:30:56;;;;;;;30.10;19.47;;;9.80;99.90;;;;;;5063727;28;20477;-76
2023/04/29 01:33:32;;;;;;;44.50;21.23;;;9.90;99.90;;;;;;5060440;28;20508;-75
2023/04/29 01:36:12;;;;;;;131.23;32.70;;;9.80;99.90;;;;;;5062286;28;20566;-77
2023/04/29 01:38:45;;;;;;;227.67;45.30;;;9.80;99.90;;;;;;5065795;28;20542;-81
2023/04/29 01:41:18;;;;;;;288.27;49.37;;;9.80;99.90;;;;;;5061141;28;20931;-75
2023/04/29 01:43:50;;;;;;;142.03;30.47;;;9.70;99.90;;;;;;5054574;28;20484;-78
2023/04/29 01:46:18;;;;;;;56.80;23.27;;;9.70;99.90;;;;;;5059186;28;20469;-79
2023/04/29 01:48:45;;;;;;;57.63;20.07;;;9.60;99.90;;;;;;5066082;28;20479;-78
2023/04/29 01:51:12;;;;;;;151.57;29.57;;;9.40;99.90;;;;;;5067063;28;20457;-77
2023/04/29 01:53:43;;;;;;;83.80;24.40;;;9.30;99.90;;;;;;5058163;28;20830;-80
2023/04/29 01:56:10;;;;;;;39.03;17.37;;;9.20;99.90;;;;;;5057765;28;20467;-78
2023/04/29 01:58:38;;;;;;;73.43;24.17;;;9.10;99.90;;;;;;5057320;28;20499;-76
2023/04/29 02:01:06;;;;;;;14.53;13.10;;;9.10;99.90;;;;;;5054282;28;20917;-78
2023/04/29 02:03:33;;;;;;;16.50;13.77;;;9.10;99.90;;;;;;5056928;28;20483;-76
2023/04/29 02:06:00;;;;;;;15.20;13.00;;;9.10;99.90;;;;;;5061171;28;20476;-76
2023/04/29 02:08:27;;;;;;;14.53;13.03;;;9.10;99.90;;;;;;5054485;28;20480;-75
2023/04/29 02:10:54;;;;;;;13.73;12.33;;;9.00;99.90;;;;;;5059218;28;20453;-76
2023/04/29 02:13:21;;;;;;;16.67;14.90;;;9.00;99.90;;;;;;5058452;28;20448;-74
2023/04/29 02:15:50;;;;;;;47.63;18.67;;;9.00;99.90;;;;;;5060962;28;20464;-81
2023/04/29 02:18:17;;;;;;;137.63;25.10;;;9.00;99.90;;;;;;5066102;28;20448;-75
2023/04/29 02:20:44;;;;;;;326.10;47.63;;;9.10;99.90;;;;;;5052159;28;20445;-76
2023/04/29 02:23:11;;;;;;;181.67;33.83;;;9.10;99.90;;;;;;5058408;28;20514;-76
2023/04/29 02:25:38;;;;;;;266.93;42.67;;;9.20;99.90;;;;;;5055226;28;20442;-80
2023/04/29 02:28:05;;;;;;;116.03;23.73;;;9.10;99.90;;;;;;5063547;28;20453;-76
2023/04/29 02:30:32;;;;;;;114.00;24.07;;;9.10;99.90;;;;;;5057250;28;20457;-76
2023/04/29 02:33:01;;;;;;;27.10;14.50;;;9.20;99.90;;;;;;5057809;28;20531;-78
2023/04/29 02:35:28;;;;;;;45.50;13.40;;;9.20;99.90;;;;;;5065046;28;20444;-76
2023/04/29 02:37:56;;;;;;;11.20;9.97;;;9.30;99.90;;;;;;5059415;28;20485;-76
2023/04/29 02:40:24;;;;;;;11.00;9.90;;;9.30;99.90;;;;;;5061829;28;20464;-77
2023/04/29 02:42:51;;;;;;;8.50;7.60;;;9.30;99.90;;;;;;5061439;28;20483;-76
2023/04/29 02:45:18;;;;;;;8.63;7.80;;;9.40;99.90;;;;;;5065261;28;20449;-79
2023/04/29 02:47:45;;;;;;;8.63;7.80;;;9.40;99.90;;;;;;5064554;28;20515;-78
2023/04/29 02:50:14;;;;;;;8.83;8.03;;;9.30;99.90;;;;;;5054653;28;20441;-77
2023/04/29 02:52:41;;;;;;;8.60;7.70;;;9.20;99.90;;;;;;5052992;28;20502;-76
2023/04/29 02:55:09;;;;;;;7.80;7.10;;;9.20;99.90;;;;;;5058352;28;20470;-79
2023/04/29 02:57:36;;;;;;;9.00;7.80;;;9.10;99.90;;;;;;5049210;28;20452;-76
2023/04/29 03:00:05;;;;;;;9.97;7.57;;;9.10;99.90;;;;;;5060981;28;20441;-77
2023/04/29 03:02:32;;;;;;;8.00;7.20;;;9.00;99.90;;;;;;5063555;28;20541;-77
2023/04/29 03:04:59;;;;;;;7.70;6.90;;;9.00;99.90;;;;;;5059596;28;20448;-75
2023/04/29 03:07:28;;;;;;;6.33;5.73;;;9.10;99.90;;;;;;5063403;28;20448;-75
2023/04/29 03:09:56;;;;;;;6.07;5.53;;;9.10;99.90;;;;;;5063753;28;20813;-78
2023/04/29 03:12:23;;;;;;;7.33;4.90;;;9.20;99.90;;;;;;5062218;28;20448;-77
2023/04/29 03:14:50;;;;;;;4.90;4.40;;;9.30;99.90;;;;;;5070094;28;20497;-76
2023/04/29 03:17:17;;;;;;;5.40;4.90;;;9.20;99.90;;;;;;5068953;28;20506;-79
2023/04/29 03:19:44;;;;;;;26.80;8.73;;;9.10;99.90;;;;;;5069744;28;20509;-79
2023/04/29 03:22:11;;;;;;;140.07;25.10;;;9.00;99.90;;;;;;5074479;28;20437;-76
2023/04/29 03:24:39;;;;;;;132.03;27.47;;;9.00;99.90;;;;;;5064868;28;20479;-75
2023/04/29 03:27:06;;;;;;;104.90;20.27;;;8.90;99.90;;;;;;5056231;28;20465;-74
2023/04/29 03:29:33;;;;;;;177.33;25.57;;;8.90;99.90;;;;;;5058725;28;20448;-76
2023/04/29 03:32:01;;;;;;;192.43;31.67;;;8.80;99.90;;;;;;5055648;28;20944;-75
2023/04/29 03:34:28;;;;;;;42.20;9.97;;;8.70;99.90;;;;;;5064098;28;20471;-76
2023/04/29 03:36:56;;;;;;;39.20;9.77;;;8.70;99.90;;;;;;5066951;28;20433;-78
2023/04/29 03:39:23;;;;;;;31.80;9.83;;;8.60;99.90;;;;;;5065832;28;20448;-76
2023/04/29 03:41:51;;;;;;;9.13;7.70;;;8.60;99.90;;;;;;5064818;28;20886;-75
2023/04/29 03:44:18;;;;;;;9.53;7.00;;;8.60;99.90;;;;;;5064667;28;20491;-75
2023/04/29 03:46:45;;;;;;;7.03;6.33;;;8.70;99.90;;;;;;5065420;28;20498;-76
2023/04/29 03:49:12;;;;;;;11.23;8.10;;;8.80;99.90;;;;;;5062958;28;20530;-75
2023/04/29 03:51:39;;;;;;;7.73;7.03;;;8.70;99.90;;;;;;5061730;28;20502;-75
2023/04/29 03:54:06;;;;;;;9.77;8.47;;;8.80;99.90;;;;;;5063377;28;20474;-76
2023/04/29 03:56:33;;;;;;;18.07;9.43;;;8.90;99.90;;;;;;5047054;28;20465;-79
2023/04/29 03:59:01;;;;;;;35.23;12.97;;;8.90;99.90;;;;;;5057451;28;20453;-81
2023/04/29 04:01:28;;;;;;;34.20;12.13;;;9.10;99.90;;;;;;5056605;28;20549;-79
2023/04/29 04:03:55;;;;;;;19.83;10.03;;;9.10;99.90;;;;;;5061115;28;20573;-76
2023/04/29 04:06:22;;;;;;;16.23;10.47;;;9.20;99.90;;;;;;5063915;28;20445;-76
2023/04/29 04:08:49;;;;;;;16.27;10.27;;;9.30;99.90;;;;;;5063146;28;20460;-76
2023/04/29 04:11:16;;;;;;;18.63;10.43;;;9.40;99.90;;;;;;5067585;28;20490;-76
2023/04/29 04:13:43;;;;;;;13.17;9.93;;;9.50;99.90;;;;;;5065849;28;20452;-76
2023/04/29 04:16:12;;;;;;;16.23;10.63;;;9.60;99.90;;;;;;5066585;28;20792;-76
2023/04/29 04:18:39;;;;;;;11.87;9.50;;;9.80;99.90;;;;;;5061323;28;20452;-76
2023/04/29 04:21:07;;;;;;;10.43;8.23;;;9.80;99.90;;;;;;5059394;28;20517;-76
2023/04/29 04:23:33;;;;;;;8.37;7.57;;;9.90;99.90;;;;;;5066724;28;20483;-77
2023/04/29 04:26:00;;;;;;;8.67;7.77;;;9.90;99.90;;;;;;5052908;28;21184;-77
2023/04/29 04:28:27;;;;;;;10.40;7.20;;;9.90;99.90;;;;;;5060967;28;20440;-79
2023/04/29 04:30:54;;;;;;;7.80;7.00;;;9.90;99.90;;;;;;5066322;28;20521;-79
2023/04/29 04:33:23;;;;;;;9.43;8.17;;;10.00;99.90;;;;;;5062462;28;20847;-79
2023/04/29 04:35:50;;;;;;;6.20;5.70;;;10.00;99.90;;;;;;5062585;28;20457;-77
2023/04/29 04:38:17;;;;;;;7.73;4.53;;;10.00;99.90;;;;;;5061905;28;20525;-79
2023/04/29 04:40:44;;;;;;;4.93;4.30;;;10.00;99.90;;;;;;5068116;28;20539;-75
2023/04/29 04:43:11;;;;;;;5.37;4.37;;;10.10;99.90;;;;;;5063907;28;20480;-76
2023/04/29 04:45:38;;;;;;;5.27;4.57;;;10.30;99.90;;;;;;5061929;28;20526;-80
2023/04/29 04:48:08;;;;;;;3.70;3.50;;;10.30;99.90;;;;;;5067780;28;20472;-80
2023/04/29 04:50:36;;;;;;;3.67;3.37;;;10.30;99.90;;;;;;5067079;28;20448;-78
2023/04/29 04:53:03;;;;;;;4.07;3.50;;;10.40;99.90;;;;;;5055890;28;20465;-77
2023/04/29 04:55:33;;;;;;;2.77;2.40;;;10.50;99.90;;;;;;5062386;28;20440;-75
2023/04/29 04:58:00;;;;;;;4.67;3.50;;;10.50;99.90;;;;;;5062047;28;20552;-76
2023/04/29 05:00:30;;;;;;;2.17;1.97;;;10.60;99.90;;;;;;5066945;28;20533;-75
2023/04/29 05:03:00;;;;;;;1.97;1.87;;;10.80;99.90;;;;;;5060255;28;20479;-77
2023/04/29 05:05:28;;;;;;;1.13;1.03;;;10.90;99.90;;;;;;5064772;28;20517;-75
2023/04/29 05:07:56;;;;;;;0.73;0.73;;;11.00;99.90;;;;;;5064778;28;20475;-78
2023/04/29 05:10:25;;;;;;;2.23;0.73;;;11.10;99.90;;;;;;5067484;28;20494;-78
2023/04/29 05:12:52;;;;;;;0.90;0.80;;;11.30;99.90;;;;;;5059092;28;20468;-76
2023/04/29 05:15:19;;;;;;;1.20;0.70;;;11.50;99.90;;;;;;5049441;28;20487;-75
2023/04/29 05:17:46;;;;;;;0.90;0.90;;;11.70;99.90;;;;;;5050910;28;20449;-75
2023/04/29 05:20:13;;;;;;;1.50;1.23;;;11.90;99.90;;;;;;5060359;28;20445;-76
2023/04/29 05:22:40;;;;;;;0.80;0.80;;;11.80;99.90;;;;;;5049574;28;20550;-76
2023/04/29 05:25:11;;;;;;;1.10;1.00;;;11.90;99.90;;;;;;5061047;28;20872;-77
2023/04/29 05:27:38;;;;;;;1.00;1.00;;;12.10;99.90;;;;;;5058592;28;20464;-78
2023/04/29 05:30:10;;;;;;;2.07;1.33;;;12.30;99.90;;;;;;5056016;28;20457;-82
2023/04/29 05:32:38;;;;;;;3.13;1.40;;;12.30;99.90;;;;;;5055950;28;20743;-80
2023/04/29 05:35:05;;;;;;;2.40;2.00;;;12.50;99.90;;;;;;5058937;28;20456;-78
2023/04/29 05:37:33;;;;;;;1.87;1.77;;;12.60;99.90;;;;;;5058836;28;20498;-78
2023/04/29 05:40:00;;;;;;;1.37;0.93;;;12.80;99.90;;;;;;5063580;28;20463;-80
2023/04/29 05:42:30;;;;;;;1.43;1.33;;;12.90;99.90;;;;;;5059192;28;20739;-76
2023/04/29 05:44:57;;;;;;;2.07;1.50;;;12.90;99.90;;;;;;5059691;28;21162;-78
2023/04/29 05:47:24;;;;;;;2.70;2.27;;;12.80;99.90;;;;;;5057346;28;20511;-83
2023/04/29 05:49:53;;;;;;;2.03;1.70;;;12.70;99.90;;;;;;5067080;28;20770;-76
2023/04/29 05:52:20;;;;;;;1.17;0.90;;;12.50;99.90;;;;;;5064467;28;20471;-80
2023/04/29 05:54:47;;;;;;;1.57;1.47;;;12.50;99.90;;;;;;5066182;28;20460;-77
2023/04/29 05:57:14;;;;;;;1.93;1.60;;;12.70;99.90;;;;;;5066325;28;20505;-76
2023/04/29 05:59:43;;;;;;;1.90;1.80;;;12.80;99.90;;;;;;5064926;28;20975;-75
2023/04/29 06:02:11;;;;;;;1.93;1.63;;;13.10;99.90;;;;;;5064496;28;20448;-79
2023/04/29 06:04:39;;;;;;;1.23;1.13;;;13.20;99.90;;;;;;5060513;28;20492;-77
2023/04/29 06:07:08;;;;;;;1.17;1.17;;;13.40;99.90;;;;;;5060518;28;20551;-76
2023/04/29 06:09:36;;;;;;;1.13;1.13;;;13.60;99.90;;;;;;5066214;28;20433;-76
2023/04/29 06:12:03;;;;;;;1.93;1.47;;;13.50;99.90;;;;;;5062736;28;20437;-76
2023/04/29 06:14:30;;;;;;;2.93;1.97;;;13.50;99.90;;;;;;5058239;28;20958;-77
2023/04/29 06:16:58;;;;;;;1.20;1.10;;;13.70;99.90;;;;;;5051486;28;20958;-77
2023/04/29 06:19:25;;;;;;;1.10;1.00;;;13.80;99.90;;;;;;5063107;28;20893;-77
2023/04/29 06:21:52;;;;;;;0.80;0.80;;;13.70;99.90;;;;;;5066018;28;20449;-80
2023/04/29 06:24:19;;;;;;;3.27;0.80;;;13.90;99.90;;;;;;5054790;28;20629;-76
2023/04/29 06:26:47;;;;;;;1.57;1.03;;;14.00;99.90;;;;;;5055868;28;20523;-77
2023/04/29 06:29:15;;;;;;;0.93;0.90;;;13.90;99.90;;;;;;5065337;28;20510;-80
2023/04/29 06:31:42;;;;;;;0.80;0.80;;;14.00;99.90;;;;;;5058732;28;20449;-78
2023/04/29 06:34:11;;;;;;;1.07;0.80;;;14.20;99.90;;;;;;5064744;28;20445;-76
2023/04/29 06:36:39;;;;;;;0.80;0.80;;;14.10;99.90;;;;;;5063329;28;20468;-76
2023/04/29 06:39:05;;;;;;;0.80;0.80;;;13.90;99.90;;;;;;5076568;28;20429;-76
2023/04/29 06:41:33;;;;;;;2.63;0.83;;;13.90;99.90;;;;;;5081325;28;20440;-78
2023/04/29 06:44:00;;;;;;;0.50;0.50;;;13.70;99.90;;;;;;5062583;28;20483;-75
2023/04/29 06:46:28;;;;;;;1.23;0.60;;;13.70;99.90;;;;;;5057448;28;20499;-77
2023/04/29 06:48:55;;;;;;;1.17;0.80;;;13.60;99.90;;;;;;5066803;28;20498;-76
2023/04/29 06:51:23;;;;;;;0.80;0.70;;;13.40;99.90;;;;;;5067069;28;20440;-76
2023/04/29 06:53:50;;;;;;;0.50;0.43;;;13.30;99.90;;;;;;5067577;28;20471;-76
2023/04/29 06:56:18;;;;;;;2.30;0.60;;;13.30;99.90;;;;;;5067330;28;20705;-76
2023/04/29 06:58:45;;;;;;;0.83;0.60;;;13.40;99.90;;;;;;5064648;28;20539;-76
2023/04/29 07:01:12;;;;;;;0.70;0.60;;;13.60;99.90;;;;;;5064013;28;20448;-76
2023/04/29 07:03:39;;;;;;;1.27;0.60;;;13.90;99.90;;;;;;5059526;28;20477;-76
2023/04/29 07:06:06;;;;;;;0.80;0.60;;;14.00;99.90;;;;;;5058894;28;20970;-76
2023/04/29 07:08:34;;;;;;;0.70;0.60;;;13.90;99.90;;;;;;5054603;28;20829;-77
2023/04/29 07:11:02;;;;;;;2.40;0.80;;;14.00;99.90;;;;;;5064019;28;20521;-78
2023/04/29 07:13:30;;;;;;;0.70;0.60;;;14.30;99.90;;;;;;5058111;28;20445;-76
2023/04/29 07:15:56;;;;;;;0.97;0.90;;;14.10;99.90;;;;;;5057192;28;20440;-76
2023/04/29 07:18:23;;;;;;;0.80;0.80;;;14.40;99.90;;;;;;5056942;28;20523;-81
2023/04/29 07:20:51;;;;;;;0.70;0.70;;;14.40;99.90;;;;;;5059539;28;20445;-76
2023/04/29 07:23:18;;;;;;;0.53;0.50;;;14.50;99.90;;;;;;5064465;28;20451;-76
2023/04/29 07:25:47;;;;;;;0.60;0.60;;;14.20;99.90;;;;;;5065383;28;21149;-78
2023/04/29 07:28:13;;;;;;;0.50;0.50;;;14.30;99.90;;;;;;5065193;28;20447;-79
2023/04/29 07:30:40;;;;;;;0.57;0.50;;;14.10;99.90;;;;;;5057457;28;20461;-76
2023/04/29 07:33:08;;;;;;;1.13;0.60;;;14.00;99.90;;;;;;5054615;28;20452;-76
2023/04/29 07:35:35;;;;;;;0.60;0.60;;;14.00;99.90;;;;;;5056222;28;20554;-78
2023/04/29 07:38:02;;;;;;;0.67;0.67;;;14.20;99.90;;;;;;5060663;28;20866;-80
2023/04/29 07:40:29;;;;;;;2.20;1.00;;;14.30;99.90;;;;;;5056389;28;20984;-77
2023/04/29 07:42:57;;;;;;;1.90;0.60;;;14.20;99.90;;;;;;5060919;28;20998;-77
2023/04/29 07:45:24;;;;;;;0.70;0.60;;;14.60;99.90;;;;;;5060509;28;20534;-75
2023/04/29 07:47:51;;;;;;;1.73;0.80;;;14.60;99.90;;;;;;5066120;28;20495;-76
2023/04/29 07:50:19;;;;;;;2.43;0.80;;;14.70;99.90;;;;;;5069246;28;20435;-74
2023/04/29 07:52:46;;;;;;;0.97;0.90;;;14.70;99.90;;;;;;5064107;28;20549;-75
2023/04/29 07:55:14;;;;;;;0.60;0.50;;;14.70;99.90;;;;;;5056368;28;20478;-74
2023/04/29 07:57:41;;;;;;;0.80;0.70;;;14.70;99.90;;;;;;5066898;28;20437;-75
2023/04/29 08:00:10;;;;;;;1.50;0.60;;;14.80;99.90;;;;;;5063566;28;20629;-75
2023/04/29 08:02:38;;;;;;;0.63;0.60;;;15.00;99.90;;;;;;5058081;28;20451;-76
2023/04/29 08:05:05;;;;;;;0.80;0.50;;;15.20;99.90;;;;;;5068101;28;20491;-75
2023/04/29 08:07:32;;;;;;;0.80;0.70;;;15.70;99.90;;;;;;5070149;28;20447;-80
2023/04/29 08:09:59;;;;;;;0.60;0.57;;;15.70;99.90;;;;;;5067805;28;20443;-76
2023/04/29 08:12:26;;;;;;;0.87;0.70;;;15.60;99.90;;;;;;5061993;28;20533;-78
2023/04/29 08:14:53;;;;;;;0.80;0.50;;;15.40;99.90;;;;;;5068576;28;20921;-74
2023/04/29 08:17:21;;;;;;;0.50;0.47;;;15.10;99.90;;;;;;5064599;28;20531;-78
2023/04/29 08:19:48;;;;;;;0.50;0.50;;;15.30;99.90;;;;;;5066585;28;20501;-75
2023/04/29 08:22:15;;;;;;;0.60;0.60;;;15.40;99.90;;;;;;5063214;28;20434;-75
2023/04/29 08:24:44;;;;;;;2.53;0.90;;;15.30;99.90;;;;;;5062818;28;20480;-76
2023/04/29 08:27:11;;;;;;;1.53;1.20;;;15.40;99.90;;;;;;5067562;28;20532;-74
2023/04/29 08:29:38;;;;;;;2.00;1.10;;;15.20;99.90;;;;;;5065730;28;20521;-75
2023/04/29 08:32:05;;;;;;;3.90;1.13;;;15.40;99.90;;;;;;5067097;28;20441;-75
2023/04/29 08:34:35;;;;;;;1.20;1.10;;;15.70;99.90;;;;;;5066477;28;20467;-76
2023/04/29 08:37:02;;;;;;;2.07;1.40;;;15.80;99.90;;;;;;5058366;28;20451;-76
2023/04/29 08:39:29;;;;;;;1.87;1.60;;;15.80;99.90;;;;;;5063095;28;20971;-76
2023/04/29 08:41:57;;;;;;;2.50;2.30;;;15.80;99.90;;;;;;5057787;28;20461;-76
2023/04/29 08:44:26;;;;;;;2.10;1.90;;;15.70;99.90;;;;;;5063040;28;20480;-76
2023/04/29 08:46:53;;;;;;;1.90;1.50;;;15.70;99.90;;;;;;5061719;28;20432;-74
2023/04/29 08:49:20;;;;;;;1.70;1.60;;;15.50;99.90;;;;;;5063695;28;20461;-76
2023/04/29 08:51:50;;;;;;;3.43;1.43;;;15.40;99.90;;;;;;5068042;28;20447;-76
2023/04/29 08:54:17;;;;;;;7.20;6.50;;;15.30;99.90;;;;;;5060516;28;20507;-75
2023/04/29 08:56:46;;;;;;;4.27;3.60;;;15.20;99.90;;;;;;5066741;28;20845;-75
2023/04/29 08:59:15;;;;;;;4.30;3.90;;;15.10;99.90;;;;;;5066464;28;20440;-78
2023/04/29 09:01:43;;;;;;;23.30;15.30;;;15.00;99.90;;;;;;5061834;28;20487;-76
2023/04/29 09:04:21;;;;;;;2.60;2.40;;;15.30;99.90;;;;;;5062918;28;20456;-79
2023/04/29 09:06:51;;;;;;;4.57;3.83;;;15.20;99.90;;;;;;5062917;28;20441;-77
2023/04/29 09:09:19;;;;;;;2.67;2.47;;;15.00;99.90;;;;;;5057358;28;20437;-76
2023/04/29 09:11:46;;;;;;;1.87;1.77;;;15.00;99.90;;;;;;5058296;28;20461;-76
2023/04/29 09:14:14;;;;;;;1.93;1.83;;;15.30;99.90;;;;;;5054722;28;20449;-76
2023/04/29 09:16:41;;;;;;;2.47;1.80;;;15.40;99.90;;;;;;5058877;28;20529;-75
2023/04/29 09:19:08;;;;;;;2.10;2.00;;;15.60;99.90;;;;;;5056740;28;20449;-77
2023/04/29 09:21:35;;;;;;;1.70;1.60;;;16.20;99.90;;;;;;5063170;28;20916;-74
2023/04/29 09:24:04;;;;;;;1.80;1.70;;;16.60;99.90;;;;;;5060730;28;20497;-75
2023/04/29 09:26:41;;;;;;;4.90;2.13;;;16.80;99.90;;;;;;5054985;28;20507;-77
2023/04/29 09:29:10;;;;;;;2.10;1.90;;;17.10;99.90;;;;;;5062785;28;20498;-75
2023/04/29 09:31:39;;;;;;;2.07;1.87;;;17.10;99.90;;;;;;5069050;28;20445;-76
2023/04/29 09:34:07;;;;;;;2.80;2.27;;;16.80;99.90;;;;;;5065312;28;20452;-77
2023/04/29 09:36:39;;;;;;;2.63;1.87;;;17.00;99.90;;;;;;5068009;28;20442;-77
2023/04/29 09:39:11;;;;;;;2.03;1.93;;;17.00;99.90;;;;;;5063447;28;20487;-76
2023/04/29 09:41:43;;;;;;;2.40;2.20;;;16.90;99.90;;;;;;5063800;28;20433;-77
2023/04/29 09:44:11;;;;;;;4.20;2.30;;;16.60;99.90;;;;;;5068154;28;20447;-75
2023/04/29 09:46:38;;;;;;;2.40;2.30;;;17.00;99.90;;;;;;5062301;28;20482;-76
2023/04/29 09:49:22;;;;;;;2.00;1.90;;;16.90;99.90;;;;;;5070267;28;20472;-75
2023/04/29 09:51:53;;;;;;;1.80;1.70;;;16.90;99.90;;;;;;5078838;28;21184;-78
2023/04/29 09:54:23;;;;;;;2.00;1.90;;;16.80;99.90;;;;;;5064592;28;20462;-74
2023/04/29 09:56:52;;;;;;;1.97;1.80;;;17.00;99.90;;;;;;5067305;28;21090;-78
2023/04/29 09:59:19;;;;;;;2.73;2.40;;;16.90;99.90;;;;;;5071532;28;20963;-76
2023/04/29 10:01:51;;;;;;;2.27;2.17;;;16.90;99.90;;;;;;5056124;28;20453;-76
2023/04/29 10:04:20;;;;;;;2.40;2.20;;;17.30;99.90;;;;;;5058265;28;20504;-75
2023/04/29 10:06:50;;;;;;;3.80;3.50;;;17.70;99.90;;;;;;5066453;28;21195;-76
2023/04/29 10:09:17;;;;;;;3.33;3.10;;;17.70;99.90;;;;;;5063558;28;20453;-75
2023/04/29 10:11:47;;;;;;;4.10;3.80;;;17.10;99.90;;;;;;5058621;28;20462;-76
2023/04/29 10:14:16;;;;;;;2.13;2.03;;;16.90;99.90;;;;;;5057912;28;20516;-75
2023/04/29 10:16:48;;;;;;;3.63;3.00;;;17.00;99.90;;;;;;5066052;28;20594;-79
2023/04/29 10:19:26;;;;;;;3.43;3.13;;;16.90;99.90;;;;;;5056993;28;21025;-74
2023/04/29 10:21:55;;;;;;;2.57;2.40;;;17.10;99.90;;;;;;5053403;28;20931;-75
2023/04/29 10:24:22;;;;;;;2.43;2.23;;;17.40;99.90;;;;;;5056220;28;20441;-75
2023/04/29 10:26:52;;;;;;;3.97;2.77;;;17.30;99.90;;;;;;5065080;28;20438;-78
2023/04/29 10:29:21;;;;;;;2.90;2.57;;;17.30;99.90;;;;;;5057296;28;20453;-78
2023/04/29 10:31:50;;;;;;;2.17;2.07;;;17.60;99.90;;;;;;5056452;28;20448;-75
2023/04/29 10:34:17;;;;;;;2.57;2.37;;;17.10;99.90;;;;;;5057785;28;20843;-77
2023/04/29 10:36:46;;;;;;;2.73;1.63;;;17.20;99.90;;;;;;5054980;28;20493;-77
2023/04/29 10:39:27;;;;;;;3.30;2.00;;;17.60;99.90;;;;;;5059106;28;20506;-77
2023/04/29 10:41:56;;;;;;;2.83;2.10;;;18.20;99.90;;;;;;5060845;28;20850;-78
2023/04/29 10:44:24;;;;;;;2.90;2.70;;;18.30;99.90;;;;;;5065628;28;20446;-77
2023/04/29 10:47:20;;;;;;;3.60;3.30;;;17.70;99.90;;;;;;5063727;28;20532;-77
2023/04/29 10:50:04;;;;;;;2.07;1.97;;;17.30;99.90;;;;;;5062010;28;20465;-77
2023/04/29 10:52:51;;;;;;;1.30;1.20;;;17.20;99.90;;;;;;5058241;28;20455;-76
2023/04/29 10:55:18;;;;;;;3.00;2.80;;;17.70;99.90;;;;;;5055839;28;20543;-77
2023/04/29 10:57:47;;;;;;;6.63;2.27;;;17.90;99.90;;;;;;5064959;28;20506;-77
2023/04/29 11:00:23;;;;;;;3.37;3.17;;;17.80;99.90;;;;;;5065973;28;20460;-77
2023/04/29 11:02:50;;;;;;;2.93;2.63;;;17.20;99.90;;;;;;5062399;28;20454;-77
2023/04/29 11:05:33;;;;;;;2.30;2.20;;;17.00;99.90;;;;;;5066896;28;20574;-76
2023/04/29 11:08:11;;;;;;;2.67;2.47;;;17.20;99.90;;;;;;5066897;28;20555;-78
2023/04/29 11:10:41;;;;;;;2.50;2.30;;;17.60;99.90;;;;;;5066837;28;20597;-80
2023/04/29 11:13:26;;;;;;;2.13;2.03;;;17.60;99.90;;;;;;5066356;28;20509;-77
2023/04/29 11:16:03;;;;;;;2.20;2.00;;;17.60;99.90;;;;;;5064970;28;20496;-76
2023/04/29 11:18:30;;;;;;;2.40;2.20;;;17.90;99.90;;;;;;5066672;28;20449;-77
2023/04/29 11:21:13;;;;;;;1.80;1.70;;;18.30;99.90;;;;;;5065706;28;20478;-78
2023/04/29 11:23:41;;;;;;;1.97;1.87;;;18.50;99.90;;;;;;5065042;28;20502;-80
2023/04/29 11:26:08;;;;;;;1.63;1.50;;;18.80;99.90;;;;;;5066193;28;20569;-77
2023/04/29 11:28:37;;;;;;;1.57;1.50;;;18.70;99.90;;;;;;5066204;28;20464;-78
2023/04/29 11:31:04;;;;;;;1.43;1.33;;;18.30;99.90;;;;;;5055987;28;20956;-78
2023/04/29 11:33:33;;;;;;;1.80;1.30;;;18.10;99.90;;;;;;5057659;28;20461;-78
2023/04/29 11:36:00;;;;;;;1.93;1.83;;;18.20;99.90;;;;;;5066670;28;20454;-77
2023/04/29 11:38:29;;;;;;;1.60;1.47;;;18.30;99.90;;;;;;5063848;28;20464;-77
2023/04/29 11:40:56;;;;;;;1.67;1.50;;;18.20;99.90;;;;;;5062241;28;20453;-77
2023/04/29 11:43:24;;;;;;;1.20;1.10;;;18.10;99.90;;;;;;5056116;28;20465;-80
2023/04/29 11:45:53;;;;;;;1.70;1.60;;;18.20;99.90;;;;;;5065483;28;20477;-76
2023/04/29 11:48:21;;;;;;;2.60;1.63;;;18.60;99.90;;;;;;5060227;28;20520;-77
2023/04/29 11:50:50;;;;;;;1.87;0.87;;;18.80;99.90;;;;;;5064841;28;20993;-81
2023/04/29 11:53:19;;;;;;;1.47;1.10;;;18.90;99.90;;;;;;5065953;28;20449;-82
2023/04/29 11:55:46;;;;;;;0.80;0.80;;;19.00;99.90;;;;;;5066399;28;20465;-77
2023/04/29 11:58:15;;;;;;;1.73;1.13;;;19.00;99.90;;;;;;5065155;28;20462;-80
2023/04/29 12:00:43;;;;;;;0.90;0.80;;;18.60;99.90;;;;;;5064973;28;20551;-76
2023/04/29 12:03:16;;;;;;;0.80;0.80;;;18.60;99.90;;;;;;5059699;28;20456;-82
2023/04/29 12:05:48;;;;;;;0.70;0.70;;;18.90;99.90;;;;;;5064538;28;21294;-78
2023/04/29 12:08:15;;;;;;;0.90;0.70;;;18.80;99.90;;;;;;5065766;28;20774;-77
2023/04/29 12:10:42;;;;;;;0.70;0.70;;;18.70;99.90;;;;;;5065911;28;20501;-79
2023/04/29 12:13:10;;;;;;;1.17;1.03;;;18.80;99.90;;;;;;5063075;28;20466;-76
2023/04/29 12:15:37;;;;;;;2.10;0.70;;;18.10;99.90;;;;;;5066133;28;20451;-77
2023/04/29 12:18:04;;;;;;;0.70;0.60;;;18.20;99.90;;;;;;5063740;28;20470;-80
2023/04/29 12:20:32;;;;;;;1.67;0.80;;;18.80;99.90;;;;;;5064886;28;20826;-77
2023/04/29 12:23:12;;;;;;;1.07;0.80;;;18.60;99.90;;;;;;5062103;28;21186;-77
2023/04/29 12:25:40;;;;;;;1.00;0.80;;;18.70;99.90;;;;;;5063854;28;20501;-76
2023/04/29 12:28:11;;;;;;;0.70;0.70;;;19.20;99.90;;;;;;5065858;28;21128;-77
2023/04/29 12:30:38;;;;;;;2.00;0.70;;;19.40;99.90;;;;;;5059740;28;20955;-79
2023/04/29 12:33:07;;;;;;;1.33;0.90;;;19.50;99.90;;;;;;5062917;28;20501;-76
2023/04/29 12:35:37;;;;;;;0.80;0.80;;;19.60;98.80;;;;;;5057359;28;20522;-79
2023/04/29 12:38:04;;;;;;;0.93;0.60;;;19.90;99.90;;;;;;5063653;28;20440;-80
2023/04/29 12:40:32;;;;;;;0.77;0.77;;;19.70;99.30;;;;;;5061649;28;20509;-77
2023/04/29 12:43:07;;;;;;;1.43;0.70;;;19.30;97.70;;;;;;5062675;28;20839;-78
2023/04/29 12:45:34;;;;;;;0.70;0.67;;;19.60;99.90;;;;;;5065248;28;20494;-77
2023/04/29 12:48:03;;;;;;;1.00;0.60;;;20.00;97.90;;;;;;5065802;28;20468;-78
2023/04/29 12:50:33;;;;;;;1.30;0.80;;;19.70;96.20;;;;;;5065218;28;20448;-77